Tippecanoe, Ohio
Current Conditions -  °F | °C
As of 2:53 PM on Friday 24 Oct 2014 (Local Time) from KPHD Reporting Station
Clear Clear  
Wind Chill: 61°   Ceiling: Unl
Heat Index: 61°   Visibility: 10mi
Dew Point: 40°   Wind: 7mph
Humidity: 46%   Direction: NA
Pressure: 30.05"   Gusts: NA
Location:  40.27°N, 81.29°W
Report Text: KPHD 241853Z AUTO VRB06KT 10SM CLR 16/04 A3005 RMK AO2 SLP179 T01610044
Loading
Personal Weather Stations






























Interactive Weather Map
Tropical Storm Tracking
New forecast layout! Learn more

10-Day Weather Forecast

Advertisements
Track Severe Weather on mobile